sensor_id;sensor_type;location;lat;lon;timestamp;pressure;altitude;pressure_sealevel;temperature;humidity
84020;BME280;74102;49.084;13.694;2023-11-21T00:00:09;92782.31;;;6.24;74.01
84020;BME280;74102;49.084;13.694;2023-11-21T00:02:37;92775.00;;;6.20;74.10
84020;BME280;74102;49.084;13.694;2023-11-21T00:05:06;92781.50;;;6.16;74.23
84020;BME280;74102;49.084;13.694;2023-11-21T00:07:33;92772.72;;;6.09;73.74
84020;BME280;74102;49.084;13.694;2023-11-21T00:09:59;92783.59;;;6.12;74.25
84020;BME280;74102;49.084;13.694;2023-11-21T00:12:24;92781.66;;;6.14;74.34
84020;BME280;74102;49.084;13.694;2023-11-21T00:14:50;92788.31;;;6.17;74.33
84020;BME280;74102;49.084;13.694;2023-11-21T00:17:15;92774.53;;;6.16;74.21
84020;BME280;74102;49.084;13.694;2023-11-21T00:19:40;92771.13;;;6.16;74.60
84020;BME280;74102;49.084;13.694;2023-11-21T00:22:08;92775.50;;;6.15;74.50
84020;BME280;74102;49.084;13.694;2023-11-21T00:24:34;92777.41;;;6.13;74.27
84020;BME280;74102;49.084;13.694;2023-11-21T00:27:00;92768.03;;;6.12;74.70
84020;BME280;74102;49.084;13.694;2023-11-21T00:29:25;92765.44;;;6.12;74.60
84020;BME280;74102;49.084;13.694;2023-11-21T00:31:51;92764.63;;;6.12;74.52
84020;BME280;74102;49.084;13.694;2023-11-21T00:34:16;92759.25;;;6.13;74.82
84020;BME280;74102;49.084;13.694;2023-11-21T00:36:41;92761.22;;;6.11;74.38
84020;BME280;74102;49.084;13.694;2023-11-21T00:39:07;92762.84;;;6.12;74.85
84020;BME280;74102;49.084;13.694;2023-11-21T00:41:32;92760.06;;;6.14;74.19
84020;BME280;74102;49.084;13.694;2023-11-21T00:43:58;92762.50;;;6.15;74.95
84020;BME280;74102;49.084;13.694;2023-11-21T00:46:24;92768.34;;;6.17;74.57
84020;BME280;74102;49.084;13.694;2023-11-21T00:48:52;92757.81;;;6.19;74.82
84020;BME280;74102;49.084;13.694;2023-11-21T00:51:19;92749.84;;;6.20;74.48
84020;BME280;74102;49.084;13.694;2023-11-21T00:53:44;92749.03;;;6.20;74.80
84020;BME280;74102;49.084;13.694;2023-11-21T00:56:10;92745.00;;;6.17;73.90
84020;BME280;74102;49.084;13.694;2023-11-21T00:58:35;92740.59;;;6.18;74.88
84020;BME280;74102;49.084;13.694;2023-11-21T01:01:01;92739.28;;;6.14;74.17
84020;BME280;74102;49.084;13.694;2023-11-21T01:03:26;92748.88;;;6.13;74.37
84020;BME280;74102;49.084;13.694;2023-11-21T01:05:51;92733.00;;;6.16;74.74
84020;BME280;74102;49.084;13.694;2023-11-21T01:08:17;92745.97;;;6.16;74.63
84020;BME280;74102;49.084;13.694;2023-11-21T01:10:42;92734.91;;;6.14;74.15
84020;BME280;74102;49.084;13.694;2023-11-21T01:13:08;92738.81;;;6.10;74.84
84020;BME280;74102;49.084;13.694;2023-11-21T01:15:33;92730.38;;;6.08;74.85
84020;BME280;74102;49.084;13.694;2023-11-21T01:17:59;92732.81;;;6.10;74.66
84020;BME280;74102;49.084;13.694;2023-11-21T01:20:25;92732.00;;;6.09;74.42
84020;BME280;74102;49.084;13.694;2023-11-21T01:22:50;92721.78;;;6.08;73.80
84020;BME280;74102;49.084;13.694;2023-11-21T01:25:15;92716.44;;;6.09;74.48
84020;BME280;74102;49.084;13.694;2023-11-21T01:27:42;92726.50;;;6.12;74.00
84020;BME280;74102;49.084;13.694;2023-11-21T01:30:09;92724.38;;;6.08;73.73
84020;BME280;74102;49.084;13.694;2023-11-21T01:32:36;92731.03;;;6.02;73.85
84020;BME280;74102;49.084;13.694;2023-11-21T01:35:03;92721.59;;;6.01;74.18
84020;BME280;74102;49.084;13.694;2023-11-21T01:37:30;92734.91;;;5.98;74.01
84020;BME280;74102;49.084;13.694;2023-11-21T01:39:56;92737.50;;;5.90;74.35
84020;BME280;74102;49.084;13.694;2023-11-21T01:42:21;92741.06;;;5.89;74.54
84020;BME280;74102;49.084;13.694;2023-11-21T01:44:46;92732.63;;;5.87;74.13
84020;BME280;74102;49.084;13.694;2023-11-21T01:47:13;92741.38;;;5.86;74.73
84020;BME280;74102;49.084;13.694;2023-11-21T01:49:39;92735.38;;;5.86;74.81
84020;BME280;74102;49.084;13.694;2023-11-21T01:52:05;92743.59;;;5.81;74.79
84020;BME280;74102;49.084;13.694;2023-11-21T01:54:32;92733.84;;;5.75;74.72
84020;BME280;74102;49.084;13.694;2023-11-21T01:56:58;92746.50;;;5.78;74.99
84020;BME280;74102;49.084;13.694;2023-11-21T01:59:34;92745.84;;;5.76;74.63
84020;BME280;74102;49.084;13.694;2023-11-21T02:02:00;92741.97;;;5.80;75.11
84020;BME280;74102;49.084;13.694;2023-11-21T02:04:25;92744.56;;;5.80;74.94
84020;BME280;74102;49.084;13.694;2023-11-21T02:06:51;92745.22;;;5.82;74.97
84020;BME280;74102;49.084;13.694;2023-11-21T02:09:17;92746.19;;;5.81;75.07
84020;BME280;74102;49.084;13.694;2023-11-21T02:11:43;92754.28;;;5.78;75.41
84020;BME280;74102;49.084;13.694;2023-11-21T02:14:09;92750.41;;;5.74;75.43
84020;BME280;74102;49.084;13.694;2023-11-21T02:16:35;92742.63;;;5.74;75.86
84020;BME280;74102;49.084;13.694;2023-11-21T02:19:02;92741.78;;;5.73;76.32
84020;BME280;74102;49.084;13.694;2023-11-21T02:21:28;92736.13;;;5.78;75.66
84020;BME280;74102;49.084;13.694;2023-11-21T02:23:55;92730.78;;;5.79;75.84
84020;BME280;74102;49.084;13.694;2023-11-21T02:26:21;92731.28;;;5.83;76.19
84020;BME280;74102;49.084;13.694;2023-11-21T02:28:46;92725.91;;;5.84;76.20
84020;BME280;74102;49.084;13.694;2023-11-21T02:31:12;92721.84;;;5.82;75.61
84020;BME280;74102;49.084;13.694;2023-11-21T02:33:37;92722.84;;;5.81;76.03
84020;BME280;74102;49.084;13.694;2023-11-21T02:36:03;92730.47;;;5.82;76.03
84020;BME280;74102;49.084;13.694;2023-11-21T02:38:29;92724.47;;;5.82;76.29
84020;BME280;74102;49.084;13.694;2023-11-21T02:40:55;92725.59;;;5.79;75.85
84020;BME280;74102;49.084;13.694;2023-11-21T02:43:20;92725.09;;;5.76;76.23
84020;BME280;74102;49.084;13.694;2023-11-21T02:45:46;92723.78;;;5.72;76.26
84020;BME280;74102;49.084;13.694;2023-11-21T02:48:11;92720.41;;;5.71;76.36
84020;BME280;74102;49.084;13.694;2023-11-21T02:50:37;92712.91;;;5.68;76.37
84020;BME280;74102;49.084;13.694;2023-11-21T02:53:03;92717.31;;;5.68;76.44
84020;BME280;74102;49.084;13.694;2023-11-21T02:55:31;92710.47;;;5.67;76.17
84020;BME280;74102;49.084;13.694;2023-11-21T02:58:00;92704.47;;;5.66;75.90
84020;BME280;74102;49.084;13.694;2023-11-21T03:00:25;92705.94;;;5.61;76.39
84020;BME280;74102;49.084;13.694;2023-11-21T03:02:50;92706.88;;;5.60;76.47
84020;BME280;74102;49.084;13.694;2023-11-21T03:05:16;92705.94;;;5.61;76.16
84020;BME280;74102;49.084;13.694;2023-11-21T03:07:41;92707.84;;;5.59;75.90
84020;BME280;74102;49.084;13.694;2023-11-21T03:10:08;92706.25;;;5.58;75.85
84020;BME280;74102;49.084;13.694;2023-11-21T03:12:37;92713.03;;;5.59;76.14
84020;BME280;74102;49.084;13.694;2023-11-21T03:15:06;92715.63;;;5.59;75.57
84020;BME280;74102;49.084;13.694;2023-11-21T03:17:32;92708.81;;;5.50;76.17
84020;BME280;74102;49.084;13.694;2023-11-21T03:19:59;92709.13;;;5.47;76.47
84020;BME280;74102;49.084;13.694;2023-11-21T03:22:25;92710.09;;;5.46;76.05
84020;BME280;74102;49.084;13.694;2023-11-21T03:24:51;92706.69;;;5.45;75.96
84020;BME280;74102;49.084;13.694;2023-11-21T03:27:17;92704.91;;;5.46;76.18
84020;BME280;74102;49.084;13.694;2023-11-21T03:29:42;92712.38;;;5.49;76.08
84020;BME280;74102;49.084;13.694;2023-11-21T03:32:08;92708.16;;;5.48;76.01
84020;BME280;74102;49.084;13.694;2023-11-21T03:34:34;92700.22;;;5.49;76.38
84020;BME280;74102;49.084;13.694;2023-11-21T03:37:00;92712.38;;;5.49;75.90
84020;BME280;74102;49.084;13.694;2023-11-21T03:39:25;92706.69;;;5.45;75.74
84020;BME280;74102;49.084;13.694;2023-11-21T03:41:51;92704.25;;;5.44;76.32
84020;BME280;74102;49.084;13.694;2023-11-21T03:44:17;92707.81;;;5.43;76.56
84020;BME280;74102;49.084;13.694;2023-11-21T03:46:43;92710.41;;;5.43;76.59
84020;BME280;74102;49.084;13.694;2023-11-21T03:49:09;92718.34;;;5.41;76.58
84020;BME280;74102;49.084;13.694;2023-11-21T03:51:36;92707.81;;;5.43;76.25
84020;BME280;74102;49.084;13.694;2023-11-21T03:54:02;92710.09;;;5.46;76.52
84020;BME280;74102;49.084;13.694;2023-11-21T03:56:27;92714.00;;;5.50;76.16
84020;BME280;74102;49.084;13.694;2023-11-21T03:58:53;92718.03;;;5.52;76.25
84020;BME280;74102;49.084;13.694;2023-11-21T04:01:21;92716.25;;;5.53;76.00
84020;BME280;74102;49.084;13.694;2023-11-21T04:03:47;92725.34;;;5.49;76.56
84020;BME280;74102;49.084;13.694;2023-11-21T04:06:13;92715.63;;;5.51;76.40
84020;BME280;74102;49.084;13.694;2023-11-21T04:08:38;92715.94;;;5.56;75.84
84020;BME280;74102;49.084;13.694;2023-11-21T04:11:03;92718.53;;;5.56;75.90
84020;BME280;74102;49.084;13.694;2023-11-21T04:13:29;92698.78;;;5.55;75.97
84020;BME280;74102;49.084;13.694;2023-11-21T04:15:55;92711.75;;;5.55;75.94
84020;BME280;74102;49.084;13.694;2023-11-21T04:18:21;92716.94;;;5.55;76.51
84020;BME280;74102;49.084;13.694;2023-11-21T04:20:48;92715.63;;;5.51;76.15
84020;BME280;74102;49.084;13.694;2023-11-21T04:23:14;92714.00;;;5.50;76.02
84020;BME280;74102;49.084;13.694;2023-11-21T04:25:40;92708.81;;;5.50;76.65
84020;BME280;74102;49.084;13.694;2023-11-21T04:28:05;92715.94;;;5.48;76.33
84020;BME280;74102;49.084;13.694;2023-11-21T04:30:31;92707.19;;;5.49;76.12
84020;BME280;74102;49.084;13.694;2023-11-21T04:32:58;92699.56;;;5.47;76.31
84020;BME280;74102;49.084;13.694;2023-11-21T04:35:23;92695.19;;;5.48;76.13
84020;BME280;74102;49.084;13.694;2023-11-21T04:37:48;92702.47;;;5.44;75.95
84020;BME280;74102;49.084;13.694;2023-11-21T04:40:16;92711.06;;;5.45;76.20
84020;BME280;74102;49.084;13.694;2023-11-21T04:42:41;92719.16;;;5.42;76.67
84020;BME280;74102;49.084;13.694;2023-11-21T04:45:08;92715.94;;;5.48;75.95
84020;BME280;74102;49.084;13.694;2023-11-21T04:47:37;92716.44;;;5.51;76.18
84020;BME280;74102;49.084;13.694;2023-11-21T04:50:03;92716.59;;;5.50;76.08
84020;BME280;74102;49.084;13.694;2023-11-21T04:52:29;92715.75;;;5.49;76.19
84020;BME280;74102;49.084;13.694;2023-11-21T04:54:55;92719.34;;;5.48;76.32
84020;BME280;74102;49.084;13.694;2023-11-21T04:57:22;92721.94;;;5.48;76.43
84020;BME280;74102;49.084;13.694;2023-11-21T04:59:48;92728.72;;;5.49;76.15
84020;BME280;74102;49.084;13.694;2023-11-21T05:02:14;92733.78;;;5.51;76.29
84020;BME280;74102;49.084;13.694;2023-11-21T05:04:39;92723.22;;;5.52;76.76
84020;BME280;74102;49.084;13.694;2023-11-21T05:07:05;92719.34;;;5.56;76.80
84020;BME280;74102;49.084;13.694;2023-11-21T05:09:30;92719.84;;;5.60;76.71
84020;BME280;74102;49.084;13.694;2023-11-21T05:11:57;92716.31;;;5.61;76.94
84020;BME280;74102;49.084;13.694;2023-11-21T05:14:23;92717.94;;;5.62;76.63
84020;BME280;74102;49.084;13.694;2023-11-21T05:16:48;92718.41;;;5.65;76.67
84020;BME280;74102;49.084;13.694;2023-11-21T05:19:16;92722.81;;;5.65;76.64
84020;BME280;74102;49.084;13.694;2023-11-21T05:21:41;92717.13;;;5.61;76.66
84020;BME280;74102;49.084;13.694;2023-11-21T05:24:07;92718.22;;;5.59;76.69
84020;BME280;74102;49.084;13.694;2023-11-21T05:26:32;92719.84;;;5.52;76.56
84020;BME280;74102;49.084;13.694;2023-11-21T05:28:57;92719.16;;;5.42;76.42
84020;BME280;74102;49.084;13.694;2023-11-21T05:31:23;92725.94;;;5.35;77.11
84020;BME280;74102;49.084;13.694;2023-11-21T05:33:48;92727.72;;;5.34;76.49
84020;BME280;74102;49.084;13.694;2023-11-21T05:36:14;92738.25;;;5.32;76.75
84020;BME280;74102;49.084;13.694;2023-11-21T05:38:40;92741.16;;;5.29;77.01
84020;BME280;74102;49.084;13.694;2023-11-21T05:41:06;92742.94;;;5.29;76.95
84020;BME280;74102;49.084;13.694;2023-11-21T05:43:32;92744.84;;;5.27;76.82
84020;BME280;74102;49.084;13.694;2023-11-21T05:46:00;92749.53;;;5.23;77.12
84020;BME280;74102;49.084;13.694;2023-11-21T05:48:26;92752.13;;;5.23;77.47
84020;BME280;74102;49.084;13.694;2023-11-21T05:50:52;92755.53;;;5.24;77.59
84020;BME280;74102;49.084;13.694;2023-11-21T05:53:17;92754.44;;;5.26;77.51
84020;BME280;74102;49.084;13.694;2023-11-21T05:55:43;92754.44;;;5.26;77.26
84020;BME280;74102;49.084;13.694;2023-11-21T05:58:08;92755.22;;;5.27;76.74
84020;BME280;74102;49.084;13.694;2023-11-21T06:00:34;92760.41;;;5.27;77.25
84020;BME280;74102;49.084;13.694;2023-11-21T06:03:00;92763.81;;;5.27;77.29
84020;BME280;74102;49.084;13.694;2023-11-21T06:05:26;92765.28;;;5.30;77.02
84020;BME280;74102;49.084;13.694;2023-11-21T06:07:52;92767.72;;;5.31;77.09
84020;BME280;74102;49.084;13.694;2023-11-21T06:10:20;92774.88;;;5.29;76.76
84020;BME280;74102;49.084;13.694;2023-11-21T06:13:02;92773.88;;;5.30;77.01
84020;BME280;74102;49.084;13.694;2023-11-21T06:15:29;92763.88;;;5.36;77.14
84020;BME280;74102;49.084;13.694;2023-11-21T06:17:54;92773.94;;;5.39;77.62
84020;BME280;74102;49.084;13.694;2023-11-21T06:20:21;92777.16;;;5.41;77.13
84020;BME280;74102;49.084;13.694;2023-11-21T06:22:47;92772.78;;;5.41;77.03
84020;BME280;74102;49.084;13.694;2023-11-21T06:25:13;92771.66;;;5.44;77.10
84020;BME280;74102;49.084;13.694;2023-11-21T06:27:41;92778.50;;;5.45;76.99
84020;BME280;74102;49.084;13.694;2023-11-21T06:30:10;92777.34;;;5.47;77.20
84020;BME280;74102;49.084;13.694;2023-11-21T06:32:38;92790.19;;;5.49;77.31
84020;BME280;74102;49.084;13.694;2023-11-21T06:35:05;92790.19;;;5.49;77.58
84020;BME280;74102;49.084;13.694;2023-11-21T06:37:31;92787.59;;;5.49;77.81
84020;BME280;74102;49.084;13.694;2023-11-21T06:39:58;92783.88;;;5.51;77.86
84020;BME280;74102;49.084;13.694;2023-11-21T06:42:26;92793.09;;;5.54;77.03
84020;BME280;74102;49.084;13.694;2023-11-21T06:44:54;92791.16;;;5.56;77.23
84020;BME280;74102;49.084;13.694;2023-11-21T06:47:25;92791.16;;;5.56;77.02
84020;BME280;74102;49.084;13.694;2023-11-21T06:49:54;92791.66;;;5.59;76.82
84020;BME280;74102;49.084;13.694;2023-11-21T06:52:20;92789.56;;;5.63;77.24
84020;BME280;74102;49.084;13.694;2023-11-21T06:54:46;92792.69;;;5.66;76.83
84020;BME280;74102;49.084;13.694;2023-11-21T06:57:13;92796.72;;;5.69;77.18
84020;BME280;74102;49.084;13.694;2023-11-21T06:59:39;92795.13;;;5.68;77.57
84020;BME280;74102;49.084;13.694;2023-11-21T07:02:06;92798.38;;;5.70;76.97
84020;BME280;74102;49.084;13.694;2023-11-21T07:04:35;92795.63;;;5.71;76.96
84020;BME280;74102;49.084;13.694;2023-11-21T07:07:02;92805.69;;;5.74;76.97
84020;BME280;74102;49.084;13.694;2023-11-21T07:09:28;92801.28;;;5.75;76.88
84020;BME280;74102;49.084;13.694;2023-11-21T07:11:54;92806.47;;;5.75;76.83
84020;BME280;74102;49.084;13.694;2023-11-21T07:14:20;92806.16;;;5.78;77.04
84020;BME280;74102;49.084;13.694;2023-11-21T07:16:46;92814.31;;;5.83;77.57
84020;BME280;74102;49.084;13.694;2023-11-21T07:19:18;92812.06;;;5.88;77.09
84020;BME280;74102;49.084;13.694;2023-11-21T07:21:44;92813.41;;;5.92;77.51
84020;BME280;74102;49.084;13.694;2023-11-21T07:24:10;92822.31;;;5.98;77.54
84020;BME280;74102;49.084;13.694;2023-11-21T07:26:36;92832.06;;;6.04;77.57
84020;BME280;74102;49.084;13.694;2023-11-21T07:29:02;92824.78;;;6.07;77.31
84020;BME280;74102;49.084;13.694;2023-11-21T07:31:28;92822.69;;;6.11;77.26
84020;BME280;74102;49.084;13.694;2023-11-21T07:33:54;92830.34;;;6.12;77.04
84020;BME280;74102;49.084;13.694;2023-11-21T07:36:25;92819.94;;;6.12;77.01
84020;BME280;74102;49.084;13.694;2023-11-21T07:38:51;92831.66;;;6.16;77.22
84020;BME280;74102;49.084;13.694;2023-11-21T07:41:17;92826.13;;;6.19;77.35
84020;BME280;74102;49.084;13.694;2023-11-21T07:43:44;92832.94;;;6.20;76.99
84020;BME280;74102;49.084;13.694;2023-11-21T07:46:10;92828.72;;;6.19;76.90
84020;BME280;74102;49.084;13.694;2023-11-21T07:48:38;92826.78;;;6.21;76.99
84020;BME280;74102;49.084;13.694;2023-11-21T07:51:03;92835.88;;;6.25;76.75
84020;BME280;74102;49.084;13.694;2023-11-21T07:53:29;92827.59;;;6.30;77.00
84020;BME280;74102;49.084;13.694;2023-11-21T07:55:55;92829.72;;;6.34;76.37
84020;BME280;74102;49.084;13.694;2023-11-21T07:58:21;92836.56;;;6.44;76.02
84020;BME280;74102;49.084;13.694;2023-11-21T08:00:46;92831.41;;;6.52;76.99
84020;BME280;74102;49.084;13.694;2023-11-21T08:03:20;92833.34;;;6.58;75.48
84020;BME280;74102;49.084;13.694;2023-11-21T08:05:48;92834.97;;;6.67;75.54
84020;BME280;74102;49.084;13.694;2023-11-21T08:08:13;92820.53;;;6.72;75.56
84020;BME280;74102;49.084;13.694;2023-11-21T08:10:39;92823.59;;;6.76;74.60
84020;BME280;74102;49.084;13.694;2023-11-21T08:13:14;92826.84;;;6.78;74.97
84020;BME280;74102;49.084;13.694;2023-11-21T08:15:42;92832.22;;;6.76;75.48
84020;BME280;74102;49.084;13.694;2023-11-21T08:18:11;92825.25;;;6.77;74.51
84020;BME280;74102;49.084;13.694;2023-11-21T08:20:55;92838.25;;;6.77;74.59
84020;BME280;74102;49.084;13.694;2023-11-21T08:23:36;92837.25;;;6.78;74.64
84020;BME280;74102;49.084;13.694;2023-11-21T08:26:02;92836.91;;;6.81;73.24
84020;BME280;74102;49.084;13.694;2023-11-21T08:28:28;92839.53;;;6.73;73.45
84020;BME280;74102;49.084;13.694;2023-11-21T08:30:53;92833.38;;;6.74;73.85
84020;BME280;74102;49.084;13.694;2023-11-21T08:33:22;92842.44;;;6.78;74.90
84020;BME280;74102;49.084;13.694;2023-11-21T08:35:48;92842.59;;;6.84;74.46
84020;BME280;74102;49.084;13.694;2023-11-21T08:38:13;92838.91;;;6.87;73.53
84020;BME280;74102;49.084;13.694;2023-11-21T08:40:39;92828.34;;;6.80;73.61
84020;BME280;74102;49.084;13.694;2023-11-21T08:43:04;92841.00;;;6.83;74.43
84020;BME280;74102;49.084;13.694;2023-11-21T08:45:30;92841.50;;;6.87;73.69
84020;BME280;74102;49.084;13.694;2023-11-21T08:47:58;92843.09;;;6.88;73.88
84020;BME280;74102;49.084;13.694;2023-11-21T08:50:24;92850.91;;;6.96;73.78
84020;BME280;74102;49.084;13.694;2023-11-21T08:52:49;92848.28;;;7.04;73.87
84020;BME280;74102;49.084;13.694;2023-11-21T08:55:16;92846.66;;;7.03;73.17
84020;BME280;74102;49.084;13.694;2023-11-21T08:57:44;92843.09;;;7.04;73.00
84020;BME280;74102;49.084;13.694;2023-11-21T09:00:11;92856.28;;;7.03;72.80
84020;BME280;74102;49.084;13.694;2023-11-21T09:02:40;92854.97;;;6.99;72.50
84020;BME280;74102;49.084;13.694;2023-11-21T09:05:08;92862.75;;;6.90;72.45
84020;BME280;74102;49.084;13.694;2023-11-21T09:07:35;92851.06;;;6.86;73.02
84020;BME280;74102;49.084;13.694;2023-11-21T09:10:01;92856.75;;;6.90;73.49
84020;BME280;74102;49.084;13.694;2023-11-21T09:12:26;92853.66;;;6.95;72.43
84020;BME280;74102;49.084;13.694;2023-11-21T09:14:52;92865.19;;;7.00;72.72
84020;BME280;74102;49.084;13.694;2023-11-21T09:17:17;92859.34;;;6.98;72.14
84020;BME280;74102;49.084;13.694;2023-11-21T09:19:44;92867.00;;;7.00;71.28
84020;BME280;74102;49.084;13.694;2023-11-21T09:22:15;92861.97;;;7.06;72.45
84020;BME280;74102;49.084;13.694;2023-11-21T09:24:40;92870.72;;;7.13;71.94
84020;BME280;74102;49.084;13.694;2023-11-21T09:27:06;92880.78;;;7.16;71.74
84020;BME280;74102;49.084;13.694;2023-11-21T09:29:31;92875.44;;;7.18;71.43
84020;BME280;74102;49.084;13.694;2023-11-21T09:32:09;92880.16;;;7.14;71.73
84020;BME280;74102;49.084;13.694;2023-11-21T09:34:39;92887.31;;;7.12;71.39
84020;BME280;74102;49.084;13.694;2023-11-21T09:37:04;92879.66;;;7.11;71.11
84020;BME280;74102;49.084;13.694;2023-11-21T09:39:32;92878.84;;;7.10;71.16
84020;BME280;74102;49.084;13.694;2023-11-21T09:42:11;92880.81;;;7.08;71.09
84020;BME280;74102;49.084;13.694;2023-11-21T09:47:42;92883.56;;;7.07;69.67
84020;BME280;74102;49.084;13.694;2023-11-21T09:50:09;92876.91;;;7.12;70.11
84020;BME280;74102;49.084;13.694;2023-11-21T09:53:19;92887.63;;;7.17;70.15
84020;BME280;74102;49.084;13.694;2023-11-21T09:55:53;92877.22;;;7.17;69.38
84020;BME280;74102;49.084;13.694;2023-11-21T09:58:20;92881.44;;;7.18;68.43
84020;BME280;74102;49.084;13.694;2023-11-21T10:00:48;92885.34;;;7.14;68.92
84020;BME280;74102;49.084;13.694;2023-11-21T10:03:28;92879.97;;;7.08;69.12
84020;BME280;74102;49.084;13.694;2023-11-21T10:05:56;92876.91;;;6.96;69.61
84020;BME280;74102;49.084;13.694;2023-11-21T10:08:24;92885.03;;;6.93;69.10
84020;BME280;74102;49.084;13.694;2023-11-21T10:10:51;92880.78;;;6.92;69.94
84020;BME280;74102;49.084;13.694;2023-11-21T10:13:18;92879.34;;;6.89;70.25
84020;BME280;74102;49.084;13.694;2023-11-21T10:15:49;92883.88;;;6.87;70.08
84020;BME280;74102;49.084;13.694;2023-11-21T10:18:15;92880.47;;;6.87;70.26
84020;BME280;74102;49.084;13.694;2023-11-21T10:20:41;92877.53;;;6.82;70.70
84020;BME280;74102;49.084;13.694;2023-11-21T10:23:14;92880.47;;;6.79;70.27
84020;BME280;74102;49.084;13.694;2023-11-21T10:25:40;92878.50;;;6.81;71.58
84020;BME280;74102;49.084;13.694;2023-11-21T10:28:15;92880.47;;;6.79;70.84
84020;BME280;74102;49.084;13.694;2023-11-21T10:30:41;92886.78;;;6.84;71.63
84020;BME280;74102;49.084;13.694;2023-11-21T10:33:07;92886.31;;;6.89;70.84
84020;BME280;74102;49.084;13.694;2023-11-21T10:35:43;92883.41;;;6.92;70.42
84020;BME280;74102;49.084;13.694;2023-11-21T10:38:15;92892.50;;;6.96;70.30
84020;BME280;74102;49.084;13.694;2023-11-21T10:40:41;92889.91;;;7.04;71.03
84020;BME280;74102;49.084;13.694;2023-11-21T10:43:08;92890.56;;;7.14;71.53
84020;BME280;74102;49.084;13.694;2023-11-21T10:45:38;92891.84;;;7.18;71.02
84020;BME280;74102;49.084;13.694;2023-11-21T10:48:10;92892.34;;;7.22;71.89
84020;BME280;74102;49.084;13.694;2023-11-21T10:50:37;92897.72;;;7.28;71.52
84020;BME280;74102;49.084;13.694;2023-11-21T10:53:04;92898.34;;;7.30;70.39
84020;BME280;74102;49.084;13.694;2023-11-21T10:58:38;92897.06;;;7.34;71.29
84020;BME280;74102;49.084;13.694;2023-11-21T11:01:09;92895.41;;;7.33;71.06
84020;BME280;74102;49.084;13.694;2023-11-21T11:03:37;92893.13;;;7.38;72.04
84020;BME280;74102;49.084;13.694;2023-11-21T11:06:28;92888.91;;;7.37;71.03
84020;BME280;74102;49.084;13.694;2023-11-21T11:08:55;92894.13;;;7.37;71.05
84020;BME280;74102;49.084;13.694;2023-11-21T11:11:21;92893.13;;;7.38;70.93
84020;BME280;74102;49.084;13.694;2023-11-21T11:16:57;92891.38;;;7.31;70.98
84020;BME280;74102;49.084;13.694;2023-11-21T11:19:24;92884.38;;;7.23;70.83
84020;BME280;74102;49.084;13.694;2023-11-21T11:22:44;92895.91;;;7.05;71.12
84020;BME280;74102;49.084;13.694;2023-11-21T11:28:15;92893.91;;;6.66;73.51
84020;BME280;74102;49.084;13.694;2023-11-21T11:33:41;92892.78;;;6.61;73.62
84020;BME280;74102;49.084;13.694;2023-11-21T11:36:17;92893.28;;;6.64;74.61
84020;BME280;74102;49.084;13.694;2023-11-21T11:38:46;92891.16;;;6.68;74.08
84020;BME280;74102;49.084;13.694;2023-11-21T11:41:27;92885.97;;;6.76;74.27
84020;BME280;74102;49.084;13.694;2023-11-21T11:43:56;92883.38;;;6.84;74.59
84020;BME280;74102;49.084;13.694;2023-11-21T11:46:51;92893.94;;;6.90;73.92
84020;BME280;74102;49.084;13.694;2023-11-21T11:54:57;92881.94;;;7.14;73.95
84020;BME280;74102;49.084;13.694;2023-11-21T11:57:24;92882.59;;;7.24;74.33
84020;BME280;74102;49.084;13.694;2023-11-21T12:00:12;92876.09;;;7.28;73.06
84020;BME280;74102;49.084;13.694;2023-11-21T12:02:53;92880.47;;;7.27;73.10
84020;BME280;74102;49.084;13.694;2023-11-21T12:05:23;92884.19;;;7.33;72.96
84020;BME280;74102;49.084;13.694;2023-11-21T12:11:07;92882.13;;;7.12;72.78
84020;BME280;74102;49.084;13.694;2023-11-21T12:13:33;92888.91;;;7.13;72.54
84020;BME280;74102;49.084;13.694;2023-11-21T12:15:59;92886.66;;;7.18;72.45
84020;BME280;74102;49.084;13.694;2023-11-21T12:18:25;92877.84;;;7.19;71.99
84020;BME280;74102;49.084;13.694;2023-11-21T12:20:51;92884.38;;;7.23;71.75
84020;BME280;74102;49.084;13.694;2023-11-21T12:23:17;92883.06;;;7.19;71.83
84020;BME280;74102;49.084;13.694;2023-11-21T12:25:43;92877.06;;;7.19;71.84
84020;BME280;74102;49.084;13.694;2023-11-21T12:28:08;92881.44;;;7.18;71.37
84020;BME280;74102;49.084;13.694;2023-11-21T12:30:35;92882.75;;;7.14;71.85
84020;BME280;74102;49.084;13.694;2023-11-21T12:33:02;92886.97;;;7.07;70.91
84020;BME280;74102;49.084;13.694;2023-11-21T12:35:30;92889.91;;;7.12;71.96
84020;BME280;74102;49.084;13.694;2023-11-21T12:37:56;92884.69;;;7.04;71.18
84020;BME280;74102;49.084;13.694;2023-11-21T12:40:25;92883.72;;;6.97;70.46
84020;BME280;74102;49.084;13.694;2023-11-21T12:43:00;92895.75;;;6.98;71.41
84020;BME280;74102;49.084;13.694;2023-11-21T12:45:35;92901.75;;;6.99;71.70
84020;BME280;74102;49.084;13.694;2023-11-21T12:48:02;92902.25;;;7.02;71.96
84020;BME280;74102;49.084;13.694;2023-11-21T12:50:32;92901.94;;;7.05;71.17
84020;BME280;74102;49.084;13.694;2023-11-21T12:53:00;92889.91;;;7.04;70.19
84020;BME280;74102;49.084;13.694;2023-11-21T12:55:32;92908.59;;;7.08;71.12
84020;BME280;74102;49.084;13.694;2023-11-21T12:58:01;92908.44;;;7.09;70.46
84020;BME280;74102;49.084;13.694;2023-11-21T13:03:09;92905.97;;;7.08;71.26
84020;BME280;74102;49.084;13.694;2023-11-21T13:05:39;92908.75;;;7.06;71.11
84020;BME280;74102;49.084;13.694;2023-11-21T13:08:08;92905.16;;;7.07;71.50
84020;BME280;74102;49.084;13.694;2023-11-21T13:10:40;92905.34;;;7.06;71.18
84020;BME280;74102;49.084;13.694;2023-11-21T13:13:10;92912.00;;;7.08;71.36
84020;BME280;74102;49.084;13.694;2023-11-21T13:15:47;92905.97;;;7.08;71.27
84020;BME280;74102;49.084;13.694;2023-11-21T13:18:13;92916.88;;;7.11;71.78
84020;BME280;74102;49.084;13.694;2023-11-21T13:20:58;92912.16;;;7.15;71.26
84020;BME280;74102;49.084;13.694;2023-11-21T13:23:24;92916.22;;;7.17;71.17
84020;BME280;74102;49.084;13.694;2023-11-21T13:25:51;92922.25;;;7.18;70.07
84020;BME280;74102;49.084;13.694;2023-11-21T13:28:17;92925.47;;;7.20;70.36